Time;durP1;ratioP1;P1;durP2;ratioP2;P2;SDS_P1;SDS_P2;PMS_P1;PMS_P2;Temp;Humidity;BMP_temperature;BMP_pressure;BME280_temperature;BME280_humidity;BME280_pressure;Samples;Min_cycle;Max_cycle;Signal;HPM_P1;HPM_P2
2022/11/13 00:00:33;;;;;;;;;;;19.60;70.80;;;;;;5048512;28;828;-68
2022/11/13 00:02:58;;;;;;;;;;;19.60;70.80;;;;;;5048266;28;1937;-67
2022/11/13 00:05:23;;;;;;;;;;;19.60;70.80;;;;;;5066031;28;884;-68
2022/11/13 00:07:49;;;;;;;;;;;19.60;70.80;;;;;;5065337;28;1215;-68
2022/11/13 00:10:15;;;;;;;;;;;19.60;70.80;;;;;;5067857;28;801;-67
2022/11/13 00:12:40;;;;;;;;;;;19.60;70.80;;;;;;5053745;28;810;-68
2022/11/13 00:15:06;;;;;;;;;;;19.60;70.80;;;;;;5063688;28;930;-67
2022/11/13 00:17:31;;;;;;;;;;;19.60;70.80;;;;;;5064670;28;903;-68
2022/11/13 00:19:57;;;;;;;;;;;19.60;70.80;;;;;;5066047;28;1172;-68
2022/11/13 00:22:22;;;;;;;;;;;19.60;70.80;;;;;;5066685;28;1914;-68
2022/11/13 00:24:48;;;;;;;;;;;19.60;70.90;;;;;;5063804;28;1171;-68
2022/11/13 00:27:13;;;;;;;;;;;19.60;70.80;;;;;;5063712;28;931;-68
2022/11/13 00:29:38;;;;;;;;;;;19.60;70.90;;;;;;5064973;28;1213;-68
2022/11/13 00:32:04;;;;;;;;;;;19.60;70.90;;;;;;5053494;28;1022;-68
2022/11/13 00:34:29;;;;;;;;;;;19.50;70.80;;;;;;5068416;28;917;-68
2022/11/13 00:36:55;;;;;;;;;;;19.50;70.90;;;;;;5062895;28;884;-68
2022/11/13 00:39:20;;;;;;;;;;;19.60;70.90;;;;;;5064853;28;1277;-68
2022/11/13 00:41:46;;;;;;;;;;;19.50;70.80;;;;;;5046198;28;1910;-68
2022/11/13 00:44:11;;;;;;;;;;;19.50;70.80;;;;;;5062556;28;978;-69
2022/11/13 00:46:37;;;;;;;;;;;19.60;70.90;;;;;;5065596;28;870;-67
2022/11/13 00:49:02;;;;;;;;;;;19.60;70.90;;;;;;5053490;28;1260;-67
2022/11/13 00:51:28;;;;;;;;;;;19.50;70.90;;;;;;5048344;28;812;-68
2022/11/13 00:53:53;;;;;;;;;;;19.50;70.80;;;;;;5062331;28;1026;-68
2022/11/13 00:56:19;;;;;;;;;;;19.50;70.80;;;;;;5065444;28;1286;-70
2022/11/13 00:58:44;;;;;;;;;;;19.60;70.90;;;;;;5063467;28;1256;-68
2022/11/13 01:01:13;;;;;;;;;;;19.50;70.80;;;;;;5063690;28;1878;-67
2022/11/13 01:03:39;;;;;;;;;;;19.50;70.90;;;;;;5067859;28;1340;-67
2022/11/13 01:06:15;;;;;;;;;;;19.60;70.90;;;;;;5062714;28;822;-68
2022/11/13 01:08:41;;;;;;;;;;;19.50;70.80;;;;;;5046653;28;1276;-67
2022/11/13 01:11:07;;;;;;;;;;;19.50;70.90;;;;;;5042921;28;945;-68
2022/11/13 01:13:33;;;;;;;;;;;19.50;70.90;;;;;;5067890;28;804;-69
2022/11/13 01:15:58;;;;;;;;;;;19.50;70.90;;;;;;5067465;28;887;-67
2022/11/13 01:18:24;;;;;;;;;;;19.50;70.90;;;;;;5065907;28;1299;-68
2022/11/13 01:20:49;;;;;;;;;;;19.50;70.90;;;;;;5063814;28;865;-68
2022/11/13 01:23:15;;;;;;;;;;;19.50;70.80;;;;;;5063156;28;1886;-68
2022/11/13 01:25:40;;;;;;;;;;;19.50;70.90;;;;;;5063773;28;808;-67
2022/11/13 01:28:06;;;;;;;;;;;19.50;70.80;;;;;;5066784;28;1274;-68
2022/11/13 01:30:31;;;;;;;;;;;19.50;70.90;;;;;;5064428;28;1270;-68
2022/11/13 01:32:56;;;;;;;;;;;19.50;70.90;;;;;;5065936;28;1600;-69
2022/11/13 01:35:22;;;;;;;;;;;19.50;70.90;;;;;;5065918;28;1197;-68
2022/11/13 01:37:47;;;;;;;;;;;19.50;70.90;;;;;;5066329;28;1218;-68
2022/11/13 01:40:13;;;;;;;;;;;19.50;70.90;;;;;;5065320;28;1002;-68
2022/11/13 01:42:38;;;;;;;;;;;19.50;70.90;;;;;;5063602;28;1914;-68
2022/11/13 01:45:24;;;;;;;;;;;19.50;70.90;;;;;;5047761;28;924;-68
2022/11/13 01:47:49;;;;;;;;;;;19.50;70.90;;;;;;5043087;28;1281;-69
2022/11/13 01:50:15;;;;;;;;;;;19.50;70.90;;;;;;5051239;28;824;-69
2022/11/13 01:52:40;;;;;;;;;;;19.50;70.90;;;;;;5050324;28;875;-68
2022/11/13 01:55:12;;;;;;;;;;;19.50;70.90;;;;;;5062506;28;917;-69
2022/11/13 01:57:37;;;;;;;;;;;19.50;70.90;;;;;;5063504;28;1360;-67
2022/11/13 02:00:04;;;;;;;;;;;19.50;70.90;;;;;;5046503;28;915;-67
2022/11/13 02:02:30;;;;;;;;;;;19.50;70.90;;;;;;5051348;28;1907;-67
2022/11/13 02:04:55;;;;;;;;;;;19.50;71.00;;;;;;5066582;28;872;-68
2022/11/13 02:07:21;;;;;;;;;;;19.50;71.00;;;;;;5063062;28;815;-68
2022/11/13 02:09:50;;;;;;;;;;;19.50;71.00;;;;;;5044829;28;1350;-68
2022/11/13 02:12:17;;;;;;;;;;;19.50;71.00;;;;;;5051393;28;1277;-68
2022/11/13 02:14:43;;;;;;;;;;;19.50;71.00;;;;;;5063122;28;1025;-68
2022/11/13 02:17:17;;;;;;;;;;;19.50;71.00;;;;;;5051664;28;878;-68
2022/11/13 02:19:44;;;;;;;;;;;19.50;71.00;;;;;;5049055;28;1324;-67
2022/11/13 02:22:17;;;;;;;;;;;19.50;71.00;;;;;;5050715;28;1969;-68
2022/11/13 02:24:43;;;;;;;;;;;19.50;71.00;;;;;;5050313;28;893;-68
2022/11/13 02:27:35;;;;;;;;;;;19.50;71.00;;;;;;5046460;28;855;-68
2022/11/13 02:30:13;;;;;;;;;;;19.50;71.00;;;;;;5061639;28;1016;-68
2022/11/13 02:32:42;;;;;;;;;;;19.50;71.00;;;;;;5062413;28;1402;-68
2022/11/13 02:35:08;;;;;;;;;;;19.50;71.00;;;;;;5049453;28;836;-67
2022/11/13 02:37:33;;;;;;;;;;;19.50;71.00;;;;;;5062065;28;1166;-68
2022/11/13 02:39:59;;;;;;;;;;;19.50;71.00;;;;;;5060609;28;1314;-68
2022/11/13 02:42:24;;;;;;;;;;;19.50;71.00;;;;;;5062598;28;1957;-68
2022/11/13 02:44:50;;;;;;;;;;;19.50;71.00;;;;;;5061315;28;1355;-68
2022/11/13 02:47:15;;;;;;;;;;;19.50;71.00;;;;;;5063403;28;875;-68
2022/11/13 02:49:40;;;;;;;;;;;19.50;71.00;;;;;;5062980;28;1226;-68
2022/11/13 02:52:06;;;;;;;;;;;19.50;71.00;;;;;;5065268;28;894;-67
2022/11/13 02:54:31;;;;;;;;;;;19.50;71.00;;;;;;5061807;28;843;-69
2022/11/13 02:56:57;;;;;;;;;;;19.50;71.00;;;;;;5060857;28;798;-69
2022/11/13 02:59:22;;;;;;;;;;;19.50;71.00;;;;;;5063804;28;1244;-67
2022/11/13 03:01:48;;;;;;;;;;;19.50;71.00;;;;;;5059423;28;1960;-67
2022/11/13 03:04:13;;;;;;;;;;;19.50;71.00;;;;;;5061982;28;990;-67
2022/11/13 03:06:39;;;;;;;;;;;19.50;71.00;;;;;;5061833;28;926;-67
2022/11/13 03:09:04;;;;;;;;;;;19.50;71.00;;;;;;5063448;28;1248;-67
2022/11/13 03:11:29;;;;;;;;;;;19.50;71.00;;;;;;5066299;28;795;-67
2022/11/13 03:13:55;;;;;;;;;;;19.50;71.00;;;;;;5065565;28;837;-69
2022/11/13 03:16:21;;;;;;;;;;;19.50;71.80;;;;;;5065520;28;1578;-67
2022/11/13 03:18:46;;;;;;;;;;;19.50;71.00;;;;;;5066837;28;1377;-67
2022/11/13 03:21:12;;;;;;;;;;;19.50;71.00;;;;;;5066213;28;1971;-67
2022/11/13 03:23:38;;;;;;;;;;;19.50;71.10;;;;;;5067734;28;1424;-68
2022/11/13 03:26:07;;;;;;;;;;;19.50;71.10;;;;;;5051370;28;1354;-68
2022/11/13 03:28:33;;;;;;;;;;;19.50;71.10;;;;;;5031805;28;1408;-68
2022/11/13 03:30:59;;;;;;;;;;;19.50;71.10;;;;;;5071637;28;1570;-68
2022/11/13 03:33:24;;;;;;;;;;;19.50;71.10;;;;;;5067579;28;1421;-67
2022/11/13 03:35:49;;;;;;;;;;;19.50;71.00;;;;;;5066867;28;1441;-68
2022/11/13 03:38:15;;;;;;;;;;;19.50;71.10;;;;;;5066479;28;1375;-67
2022/11/13 03:40:41;;;;;;;;;;;19.50;71.10;;;;;;5066416;28;1601;-68
2022/11/13 03:43:06;;;;;;;;;;;19.50;71.00;;;;;;5070366;28;1906;-67
2022/11/13 03:45:31;;;;;;;;;;;19.50;71.10;;;;;;5064562;28;1466;-68
2022/11/13 03:47:57;;;;;;;;;;;19.50;71.10;;;;;;5065029;28;1611;-67
2022/11/13 03:50:22;;;;;;;;;;;19.50;71.10;;;;;;5063809;28;1397;-67
2022/11/13 03:52:48;;;;;;;;;;;19.50;71.10;;;;;;5064849;28;1335;-68
2022/11/13 03:55:13;;;;;;;;;;;19.50;71.10;;;;;;5064331;28;1464;-67
2022/11/13 03:57:39;;;;;;;;;;;19.50;71.10;;;;;;5066358;28;1306;-67
2022/11/13 04:00:04;;;;;;;;;;;19.50;71.10;;;;;;5066715;28;1259;-67
2022/11/13 04:02:30;;;;;;;;;;;19.50;71.10;;;;;;5053914;28;1962;-68
2022/11/13 04:04:55;;;;;;;;;;;19.50;71.10;;;;;;5068794;28;1517;-68
2022/11/13 04:07:21;;;;;;;;;;;19.50;71.10;;;;;;5064714;28;1287;-68
2022/11/13 04:09:46;;;;;;;;;;;19.50;71.10;;;;;;5067853;28;1442;-69
2022/11/13 04:12:12;;;;;;;;;;;19.50;71.10;;;;;;5051995;28;1271;-69
2022/11/13 04:14:37;;;;;;;;;;;19.50;71.10;;;;;;5067987;28;1708;-68
2022/11/13 04:17:02;;;;;;;;;;;19.50;71.10;;;;;;5064608;28;1351;-68
2022/11/13 04:19:28;;;;;;;;;;;19.50;71.10;;;;;;5066672;28;1414;-68
2022/11/13 04:21:53;;;;;;;;;;;19.50;71.10;;;;;;5063136;28;1898;-69
2022/11/13 04:24:19;;;;;;;;;;;19.50;71.10;;;;;;5063248;28;871;-68
2022/11/13 04:26:44;;;;;;;;;;;19.40;71.10;;;;;;5063960;28;832;-69
2022/11/13 04:29:10;;;;;;;;;;;19.50;71.10;;;;;;5066890;28;1233;-69
2022/11/13 04:31:35;;;;;;;;;;;19.50;71.20;;;;;;5068598;28;1426;-68
2022/11/13 04:34:01;;;;;;;;;;;19.40;71.10;;;;;;5067692;28;1172;-68
2022/11/13 04:36:26;;;;;;;;;;;19.50;71.10;;;;;;5067588;28;776;-69
2022/11/13 04:38:51;;;;;;;;;;;19.40;71.10;;;;;;5066621;28;1359;-69
2022/11/13 04:44:01;;;;;;;;;;;19.50;71.10;;;;;;5057582;28;824;-68
2022/11/13 04:46:26;;;;;;;;;;;19.50;71.10;;;;;;5053542;28;885;-69
2022/11/13 04:48:52;;;;;;;;;;;19.40;71.10;;;;;;5066942;28;1249;-68
2022/11/13 04:51:17;;;;;;;;;;;19.40;71.10;;;;;;5043558;28;1140;-69
2022/11/13 04:53:43;;;;;;;;;;;19.40;71.10;;;;;;5061996;28;846;-68
2022/11/13 04:56:09;;;;;;;;;;;19.40;71.10;;;;;;5066039;28;1189;-69
2022/11/13 04:58:34;;;;;;;;;;;19.40;71.10;;;;;;5069089;28;1365;-69
2022/11/13 05:00:59;;;;;;;;;;;19.40;71.10;;;;;;5066087;28;1972;-68
2022/11/13 05:03:25;;;;;;;;;;;19.40;71.10;;;;;;5067935;28;1249;-69
2022/11/13 05:05:50;;;;;;;;;;;19.40;71.10;;;;;;5063935;28;874;-68
2022/11/13 05:08:16;;;;;;;;;;;19.40;71.10;;;;;;5060492;28;1244;-68
2022/11/13 05:10:42;;;;;;;;;;;19.40;71.10;;;;;;5062886;28;826;-69
2022/11/13 05:13:07;;;;;;;;;;;19.40;71.10;;;;;;5063212;28;894;-68
2022/11/13 05:15:33;;;;;;;;;;;19.40;71.10;;;;;;5065056;28;1005;-70
2022/11/13 05:17:58;;;;;;;;;;;19.50;71.10;;;;;;5041641;28;1275;-68
2022/11/13 05:20:23;;;;;;;;;;;19.50;71.10;;;;;;5065024;28;828;-68
2022/11/13 05:22:49;;;;;;;;;;;19.50;71.00;;;;;;5051158;28;1967;-68
2022/11/13 05:25:14;;;;;;;;;;;19.50;70.90;;;;;;5066558;28;838;-68
2022/11/13 05:27:40;;;;;;;;;;;19.50;70.90;;;;;;5068063;28;1298;-68
2022/11/13 05:30:06;;;;;;;;;;;19.50;70.80;;;;;;5060473;28;814;-68
2022/11/13 05:32:31;;;;;;;;;;;19.60;70.80;;;;;;5062733;28;1464;-68
2022/11/13 05:34:57;;;;;;;;;;;19.50;70.70;;;;;;5066567;28;946;-67
2022/11/13 05:37:22;;;;;;;;;;;19.60;70.60;;;;;;5066150;28;1014;-68
2022/11/13 05:39:47;;;;;;;;;;;19.60;70.50;;;;;;5064433;28;1365;-68
2022/11/13 05:42:13;;;;;;;;;;;19.60;70.50;;;;;;5064469;28;1955;-68
2022/11/13 05:44:38;;;;;;;;;;;19.60;71.20;;;;;;5062801;28;852;-68
2022/11/13 05:47:04;;;;;;;;;;;19.60;70.40;;;;;;5063959;28;808;-68
2022/11/13 05:49:29;;;;;;;;;;;19.60;70.30;;;;;;5063823;28;1218;-68
2022/11/13 05:51:55;;;;;;;;;;;19.70;70.40;;;;;;5064666;28;1006;-68
2022/11/13 05:54:20;;;;;;;;;;;19.70;70.30;;;;;;5063772;28;862;-68
2022/11/13 05:56:46;;;;;;;;;;;19.70;70.20;;;;;;5063074;28;948;-68
2022/11/13 05:59:11;;;;;;;;;;;19.70;70.20;;;;;;5064229;28;1264;-68
2022/11/13 06:01:37;;;;;;;;;;;19.70;70.20;;;;;;5064124;28;1922;-68
2022/11/13 06:04:03;;;;;;;;;;;19.70;70.10;;;;;;5065920;28;865;-68
2022/11/13 06:06:29;;;;;;;;;;;19.70;70.10;;;;;;5063244;28;887;-68
2022/11/13 06:08:54;;;;;;;;;;;19.70;70.00;;;;;;5044197;28;1321;-68
2022/11/13 06:11:21;;;;;;;;;;;19.70;70.00;;;;;;5050487;28;904;-68
2022/11/13 06:13:47;;;;;;;;;;;19.80;70.00;;;;;;5060322;28;851;-68
2022/11/13 06:16:20;;;;;;;;;;;19.70;70.00;;;;;;5050235;28;797;-67
2022/11/13 06:18:45;;;;;;;;;;;19.80;70.00;;;;;;5050591;28;1284;-68
2022/11/13 06:21:11;;;;;;;;;;;19.80;70.00;;;;;;5062125;28;1984;-68
2022/11/13 06:23:37;;;;;;;;;;;19.80;69.90;;;;;;5046391;28;1743;-72
2022/11/13 06:26:03;;;;;;;;;;;19.80;70.00;;;;;;5058612;28;1971;-69
2022/11/13 06:28:29;;;;;;;;;;;19.80;69.90;;;;;;5064606;28;1325;-70
2022/11/13 06:30:54;;;;;;;;;;;19.80;69.90;;;;;;5049277;28;1340;-70
2022/11/13 06:33:20;;;;;;;;;;;19.80;69.80;;;;;;5065291;28;1360;-70
2022/11/13 06:35:45;;;;;;;;;;;19.80;69.80;;;;;;5060323;28;809;-71
2022/11/13 06:38:11;;;;;;;;;;;19.80;69.80;;;;;;5041963;28;1301;-72
2022/11/13 06:40:37;;;;;;;;;;;19.80;69.80;;;;;;5065591;28;817;-72
2022/11/13 06:43:02;;;;;;;;;;;19.80;69.80;;;;;;5049774;28;1961;-67
2022/11/13 06:45:28;;;;;;;;;;;19.80;69.80;;;;;;5066048;28;855;-69
2022/11/13 06:47:54;;;;;;;;;;;19.80;69.70;;;;;;5063217;28;1318;-67
2022/11/13 06:50:19;;;;;;;;;;;19.80;69.70;;;;;;5060024;28;827;-67
2022/11/13 06:52:45;;;;;;;;;;;19.80;69.70;;;;;;5063783;28;1009;-69
2022/11/13 06:55:10;;;;;;;;;;;19.80;69.70;;;;;;5063466;28;840;-69
2022/11/13 06:57:36;;;;;;;;;;;19.80;69.70;;;;;;5059662;28;938;-69
2022/11/13 07:00:01;;;;;;;;;;;19.80;69.70;;;;;;5064129;28;1323;-69
2022/11/13 07:02:26;;;;;;;;;;;19.80;69.70;;;;;;5064868;28;1972;-71
2022/11/13 07:04:52;;;;;;;;;;;19.80;69.70;;;;;;5059673;28;982;-71
2022/11/13 07:07:17;;;;;;;;;;;19.80;69.70;;;;;;5063698;28;825;-71
2022/11/13 07:09:43;;;;;;;;;;;19.80;69.70;;;;;;5060925;28;1367;-72
2022/11/13 07:12:08;;;;;;;;;;;19.80;69.80;;;;;;5061406;28;1197;-70
2022/11/13 07:14:34;;;;;;;;;;;19.80;69.70;;;;;;5063935;28;1002;-70
2022/11/13 07:16:59;;;;;;;;;;;19.80;69.70;;;;;;5056952;28;1322;-74
2022/11/13 07:19:25;;;;;;;;;;;19.80;69.80;;;;;;5043506;28;1374;-73
2022/11/13 07:21:50;;;;;;;;;;;19.80;69.80;;;;;;5061956;28;1914;-70
2022/11/13 07:24:15;;;;;;;;;;;19.80;69.80;;;;;;5050379;28;844;-69
2022/11/13 07:26:41;;;;;;;;;;;19.80;69.80;;;;;;5064923;28;815;-71
2022/11/13 07:29:06;;;;;;;;;;;19.80;69.80;;;;;;5046769;28;1295;-70
2022/11/13 07:31:32;;;;;;;;;;;19.80;69.80;;;;;;5061163;28;1186;-73
2022/11/13 07:33:57;;;;;;;;;;;19.80;69.90;;;;;;5048474;28;789;-70
2022/11/13 07:36:23;;;;;;;;;;;19.80;69.90;;;;;;5059213;28;860;-71
2022/11/13 07:38:50;;;;;;;;;;;19.80;69.90;;;;;;5059466;28;1244;-69
2022/11/13 07:41:15;;;;;;;;;;;19.80;70.00;;;;;;5060998;28;1977;-71
2022/11/13 07:43:41;;;;;;;;;;;19.80;70.00;;;;;;5061233;28;927;-74
2022/11/13 07:46:06;;;;;;;;;;;19.80;70.00;;;;;;5057546;28;840;-75
2022/11/13 07:48:32;;;;;;;;;;;19.70;69.90;;;;;;5061246;28;1374;-73
2022/11/13 07:51:01;;;;;;;;;;;19.70;70.00;;;;;;5044550;28;1228;-71
2022/11/13 07:53:26;;;;;;;;;;;19.70;70.00;;;;;;5037275;28;1183;-71
2022/11/13 07:55:52;;;;;;;;;;;19.70;70.00;;;;;;5066661;28;845;-70
2022/11/13 07:58:17;;;;;;;;;;;19.70;70.00;;;;;;5043919;28;1391;-71
2022/11/13 08:00:43;;;;;;;;;;;19.70;70.10;;;;;;5059838;28;967;-70
2022/11/13 08:03:10;;;;;;;;;;;19.70;70.10;;;;;;5052439;28;2276;-70
2022/11/13 08:05:35;;;;;;;;;;;19.70;70.10;;;;;;5050522;28;1893;-70
2022/11/13 08:08:01;;;;;;;;;;;19.70;70.10;;;;;;5062912;28;1310;-70
2022/11/13 08:10:26;;;;;;;;;;;19.70;70.10;;;;;;5070622;28;1618;-69
2022/11/13 08:13:02;;;;;;;;;;;19.70;70.10;;;;;;5048906;28;1502;-70
2022/11/13 08:15:28;;;;;;;;;;;19.70;70.10;;;;;;5067045;28;1017;-72
2022/11/13 08:17:54;;;;;;;;;;;19.70;70.20;;;;;;5064769;28;1263;-72
2022/11/13 08:20:20;;;;;;;;;;;19.70;70.20;;;;;;5053016;28;871;-71
2022/11/13 08:22:45;;;;;;;;;;;19.70;70.20;;;;;;5065518;28;1918;-71
2022/11/13 08:25:11;;;;;;;;;;;19.70;70.20;;;;;;5061553;28;1013;-71
2022/11/13 08:27:37;;;;;;;;;;;19.70;70.10;;;;;;5066754;28;860;-71
2022/11/13 08:30:02;;;;;;;;;;;19.70;70.10;;;;;;5065514;28;1227;-69
2022/11/13 08:32:28;;;;;;;;;;;19.70;70.10;;;;;;5052638;28;940;-69
2022/11/13 08:34:53;;;;;;;;;;;19.70;70.10;;;;;;5051627;28;1018;-69
2022/11/13 08:37:19;;;;;;;;;;;19.70;70.10;;;;;;5066573;28;809;-70
2022/11/13 08:39:44;;;;;;;;;;;19.70;70.00;;;;;;5067832;28;1352;-71
2022/11/13 08:42:10;;;;;;;;;;;19.70;70.00;;;;;;5064694;28;1902;-71
2022/11/13 08:44:35;;;;;;;;;;;19.70;70.00;;;;;;5065666;28;834;-71
2022/11/13 08:47:01;;;;;;;;;;;19.70;70.00;;;;;;5065173;28;826;-70
2022/11/13 08:49:26;;;;;;;;;;;19.70;69.90;;;;;;5063880;28;1255;-71
2022/11/13 08:51:51;;;;;;;;;;;19.80;70.00;;;;;;5065181;28;849;-70
2022/11/13 08:54:17;;;;;;;;;;;19.80;69.90;;;;;;5065803;28;962;-70
2022/11/13 08:56:42;;;;;;;;;;;19.80;70.00;;;;;;5065264;28;860;-69
2022/11/13 08:59:08;;;;;;;;;;;19.80;69.90;;;;;;5069226;28;1232;-71
2022/11/13 09:01:34;;;;;;;;;;;19.80;69.80;;;;;;5053612;28;1902;-70
2022/11/13 09:03:59;;;;;;;;;;;19.80;69.80;;;;;;5063609;28;949;-70
2022/11/13 09:06:25;;;;;;;;;;;19.80;69.80;;;;;;5065130;28;911;-70
2022/11/13 09:08:50;;;;;;;;;;;19.80;69.80;;;;;;5064851;28;1283;-70
2022/11/13 09:11:16;;;;;;;;;;;19.80;69.80;;;;;;5065977;28;1002;-69
2022/11/13 09:13:41;;;;;;;;;;;19.80;69.70;;;;;;5066411;28;1006;-72
2022/11/13 09:16:07;;;;;;;;;;;19.80;70.50;;;;;;5046854;28;989;-72
2022/11/13 09:18:32;;;;;;;;;;;19.80;69.70;;;;;;5061213;28;1285;-72
2022/11/13 09:21:01;;;;;;;;;;;19.80;69.80;;;;;;5065896;28;871;-72
2022/11/13 09:23:27;;;;;;;;;;;19.80;69.80;;;;;;5051611;28;1902;-72
2022/11/13 09:25:53;;;;;;;;;;;19.80;69.80;;;;;;5063876;28;888;-72
2022/11/13 09:28:18;;;;;;;;;;;19.80;69.80;;;;;;5031165;28;1362;-70
2022/11/13 09:30:44;;;;;;;;;;;19.80;69.80;;;;;;5060601;28;874;-71
2022/11/13 09:33:14;;;;;;;;;;;19.80;69.80;;;;;;5063177;28;1549;-71
2022/11/13 09:35:39;;;;;;;;;;;19.80;69.80;;;;;;5064758;28;843;-71
2022/11/13 09:38:05;;;;;;;;;;;19.80;69.80;;;;;;5051734;28;1343;-70
2022/11/13 09:40:42;;;;;;;;;;;19.80;69.90;;;;;;5052140;28;863;-71
2022/11/13 09:43:19;;;;;;;;;;;19.80;69.80;;;;;;5052019;28;1981;-71
2022/11/13 09:45:44;;;;;;;;;;;19.80;69.90;;;;;;5064462;28;1681;-71
2022/11/13 09:48:28;;;;;;;;;;;19.80;69.90;;;;;;5065743;28;1341;-71
2022/11/13 09:50:54;;;;;;;;;;;19.70;69.80;;;;;;5066398;28;1419;-70
2022/11/13 09:53:19;;;;;;;;;;;19.80;69.90;;;;;;5063410;28;1505;-71
2022/11/13 09:56:07;;;;;;;;;;;19.70;69.90;;;;;;5065419;28;1391;-72
2022/11/13 09:58:43;;;;;;;;;;;19.70;69.90;;;;;;5050269;28;1828;-71
2022/11/13 10:01:13;;;;;;;;;;;19.70;70.00;;;;;;5065807;28;1457;-71
2022/11/13 10:03:39;;;;;;;;;;;19.70;70.00;;;;;;5049592;28;1345;-73
2022/11/13 10:06:22;;;;;;;;;;;19.70;70.00;;;;;;5050681;28;1512;-71
2022/11/13 10:08:47;;;;;;;;;;;19.70;70.00;;;;;;5051842;28;1417;-71
2022/11/13 10:11:21;;;;;;;;;;;19.70;70.10;;;;;;5064221;28;1367;-70
2022/11/13 10:13:47;;;;;;;;;;;19.70;70.10;;;;;;5052366;28;1529;-70
2022/11/13 10:16:19;;;;;;;;;;;19.70;70.20;;;;;;5033127;28;4569;-71
2022/11/13 10:18:45;;;;;;;;;;;19.70;70.20;;;;;;5048609;28;1370;-72
2022/11/13 10:21:29;;;;;;;;;;;19.70;70.20;;;;;;5066026;28;1490;-72
2022/11/13 10:23:55;;;;;;;;;;;19.70;70.10;;;;;;5063261;28;1399;-69
2022/11/13 10:26:21;;;;;;;;;;;19.70;70.20;;;;;;5048647;28;1451;-70
2022/11/13 10:28:46;;;;;;;;;;;19.70;70.20;;;;;;5048023;28;1286;-73
2022/11/13 10:31:12;;;;;;;;;;;19.70;70.20;;;;;;5043250;28;1361;-71
2022/11/13 10:33:37;;;;;;;;;;;19.70;70.30;;;;;;5045446;28;901;-69
2022/11/13 10:36:13;;;;;;;;;;;19.70;71.00;;;;;;5062635;28;807;-70
2022/11/13 10:38:41;;;;;;;;;;;19.60;70.20;;;;;;5060873;28;1287;-70
2022/11/13 10:41:10;;;;;;;;;;;19.70;70.30;;;;;;5049890;28;903;-71
2022/11/13 10:43:35;;;;;;;;;;;19.60;70.20;;;;;;5050109;28;1972;-70
2022/11/13 10:46:02;;;;;;;;;;;19.60;70.30;;;;;;5051308;28;802;-71
2022/11/13 10:48:29;;;;;;;;;;;19.60;70.30;;;;;;5047944;28;1291;-70
2022/11/13 10:50:55;;;;;;;;;;;19.60;70.30;;;;;;5062005;28;805;-70
2022/11/13 10:53:21;;;;;;;;;;;19.60;70.30;;;;;;5051393;28;1290;-70
2022/11/13 10:55:47;;;;;;;;;;;19.60;70.40;;;;;;5049471;28;832;-70
2022/11/13 10:58:13;;;;;;;;;;;19.60;70.40;;;;;;5049918;28;1718;-70
2022/11/13 11:00:40;;;;;;;;;;;19.60;70.40;;;;;;5045464;28;907;-70
2022/11/13 11:03:15;;;;;;;;;;;19.60;70.40;;;;;;5050937;28;1969;-70
2022/11/13 11:05:50;;;;;;;;;;;19.60;70.40;;;;;;5060830;28;824;-70
2022/11/13 11:08:15;;;;;;;;;;;19.60;70.40;;;;;;5063714;28;1265;-70
2022/11/13 11:12:14;;;;;;;;;;;19.60;70.40;;;;;;5067074;28;911;-71
2022/11/13 11:13:26;;;;;;;;;;;19.60;70.40;;;;;;5049701;28;1284;-70
2022/11/13 11:15:58;;;;;;;;;;;19.60;70.40;;;;;;5061354;28;901;-70
2022/11/13 11:18:42;;;;;;;;;;;19.60;70.40;;;;;;5047358;28;1423;-71
2022/11/13 11:21:09;;;;;;;;;;;19.60;71.20;;;;;;5050460;28;958;-70
2022/11/13 11:23:34;;;;;;;;;;;19.60;70.50;;;;;;5047007;28;1985;-70
2022/11/13 11:26:01;;;;;;;;;;;19.60;70.50;;;;;;5064008;28;934;-72
2022/11/13 11:28:32;;;;;;;;;;;19.60;70.50;;;;;;5044728;28;1290;-70
2022/11/13 11:31:04;;;;;;;;;;;19.60;70.50;;;;;;5060480;28;863;-71
2022/11/13 11:33:29;;;;;;;;;;;19.60;70.50;;;;;;5060636;28;1565;-71
2022/11/13 11:36:04;;;;;;;;;;;19.60;70.50;;;;;;5061402;28;899;-70
2022/11/13 11:38:32;;;;;;;;;;;19.60;70.50;;;;;;5062389;28;1264;-70
2022/11/13 11:41:02;;;;;;;;;;;19.60;70.60;;;;;;5065136;28;1692;-70
2022/11/13 11:43:34;;;;;;;;;;;19.60;70.60;;;;;;5049728;28;1910;-70
2022/11/13 11:45:59;;;;;;;;;;;19.60;70.60;;;;;;5064868;28;836;-70
2022/11/13 11:48:25;;;;;;;;;;;19.60;70.60;;;;;;5048435;28;1336;-70
2022/11/13 11:51:10;;;;;;;;;;;19.60;70.60;;;;;;5066681;28;830;-70
2022/11/13 11:53:35;;;;;;;;;;;19.60;70.60;;;;;;5053128;28;1340;-70
2022/11/13 11:56:05;;;;;;;;;;;19.60;70.60;;;;;;5065813;28;1152;-70
2022/11/13 11:58:34;;;;;;;;;;;19.60;70.60;;;;;;5048602;28;1282;-70
2022/11/13 12:01:04;;;;;;;;;;;19.60;70.60;;;;;;5065192;28;836;-70
2022/11/13 12:03:47;;;;;;;;;;;19.60;70.60;;;;;;5051251;28;1898;-70
2022/11/13 12:06:13;;;;;;;;;;;19.60;70.60;;;;;;5065440;28;1005;-70
2022/11/13 12:08:42;;;;;;;;;;;19.60;70.60;;;;;;5066934;28;1350;-70
2022/11/13 12:11:17;;;;;;;;;;;19.60;70.60;;;;;;5066122;28;902;-70
2022/11/13 12:14:02;;;;;;;;;;;19.60;70.70;;;;;;5067157;28;975;-69
2022/11/13 12:16:43;;;;;;;;;;;19.60;70.60;;;;;;5070346;28;899;-69
2022/11/13 12:19:12;;;;;;;;;;;19.50;70.70;;;;;;5048977;28;1389;-69
2022/11/13 12:21:56;;;;;;;;;;;19.50;70.70;;;;;;5047599;28;1971;-70
2022/11/13 12:24:27;;;;;;;;;;;19.50;70.60;;;;;;5065847;28;870;-70
2022/11/13 12:27:05;;;;;;;;;;;19.50;70.70;;;;;;5053314;28;867;-70
2022/11/13 12:29:43;;;;;;;;;;;19.50;70.70;;;;;;5064771;28;1383;-69
2022/11/13 12:32:20;;;;;;;;;;;19.50;70.70;;;;;;5062883;28;1447;-70
2022/11/13 12:34:53;;;;;;;;;;;19.50;70.70;;;;;;5068963;28;909;-70
2022/11/13 12:37:24;;;;;;;;;;;19.50;70.70;;;;;;5051064;28;934;-69
2022/11/13 12:39:53;;;;;;;;;;;19.50;70.70;;;;;;5048196;28;1315;-69
2022/11/13 12:42:27;;;;;;;;;;;19.50;70.70;;;;;;5063848;28;2199;-70
2022/11/13 12:44:56;;;;;;;;;;;19.50;70.70;;;;;;5029858;28;1313;-69
2022/11/13 12:47:21;;;;;;;;;;;19.50;70.70;;;;;;5048697;28;1274;-69
2022/11/13 12:49:56;;;;;;;;;;;19.50;70.70;;;;;;5051176;28;1276;-69
2022/11/13 12:52:23;;;;;;;;;;;19.50;70.70;;;;;;5045166;28;902;-69
2022/11/13 12:54:48;;;;;;;;;;;19.50;70.70;;;;;;5052229;28;831;-69
2022/11/13 12:57:17;;;;;;;;;;;19.50;70.70;;;;;;5048399;28;1539;-69
2022/11/13 12:59:50;;;;;;;;;;;19.50;70.70;;;;;;5060584;28;1286;-69
2022/11/13 13:02:24;;;;;;;;;;;19.50;70.70;;;;;;5066805;28;1894;-69
2022/11/13 13:05:09;;;;;;;;;;;19.50;70.80;;;;;;5067119;28;931;-68
2022/11/13 13:07:46;;;;;;;;;;;19.50;70.70;;;;;;5064300;28;1945;-69
2022/11/13 13:10:22;;;;;;;;;;;19.50;70.80;;;;;;5065179;28;1367;-69
2022/11/13 13:13:06;;;;;;;;;;;19.50;70.80;;;;;;5063269;28;1288;-69
2022/11/13 13:15:38;;;;;;;;;;;19.50;70.80;;;;;;5064238;28;1968;-69
2022/11/13 13:18:10;;;;;;;;;;;19.50;70.80;;;;;;5048268;28;1824;-69
2022/11/13 13:20:37;;;;;;;;;;;19.50;70.80;;;;;;5065429;28;2264;-69
2022/11/13 13:23:02;;;;;;;;;;;19.50;70.80;;;;;;5046559;28;1910;-69
2022/11/13 13:25:29;;;;;;;;;;;19.50;70.80;;;;;;5063628;28;1446;-69
2022/11/13 13:28:02;;;;;;;;;;;19.50;70.80;;;;;;5047249;28;1277;-69
2022/11/13 13:30:30;;;;;;;;;;;19.50;70.80;;;;;;5063245;28;917;-69
2022/11/13 13:33:25;;;;;;;;;;;19.50;70.80;;;;;;5064928;28;1116;-69
2022/11/13 13:35:53;;;;;;;;;;;19.50;70.80;;;;;;4989096;28;1013;-69
2022/11/13 13:38:29;;;;;;;;;;;19.50;70.90;;;;;;5060524;28;1323;-69
2022/11/13 13:40:54;;;;;;;;;;;19.50;70.90;;;;;;5050681;28;836;-69
2022/11/13 13:43:28;;;;;;;;;;;19.50;70.90;;;;;;5062576;28;1965;-70
2022/11/13 13:45:54;;;;;;;;;;;19.50;70.90;;;;;;5063827;28;1339;-71
2022/11/13 13:48:20;;;;;;;;;;;19.50;70.90;;;;;;5066375;28;1292;-68
2022/11/13 13:50:46;;;;;;;;;;;19.50;70.90;;;;;;5047583;28;1282;-70
2022/11/13 13:53:13;;;;;;;;;;;19.50;70.90;;;;;;5048503;28;1232;-69
2022/11/13 13:55:42;;;;;;;;;;;19.50;70.90;;;;;;5067561;28;806;-69
2022/11/13 13:58:08;;;;;;;;;;;19.50;70.90;;;;;;5050922;28;1435;-69
2022/11/13 14:00:34;;;;;;;;;;;19.50;70.90;;;;;;5052407;28;834;-69
2022/11/13 14:03:00;;;;;;;;;;;19.50;70.90;;;;;;5067454;28;1898;-68
2022/11/13 14:05:25;;;;;;;;;;;19.50;71.00;;;;;;5065229;28;1021;-69
2022/11/13 14:07:50;;;;;;;;;;;19.50;70.90;;;;;;5062780;28;1292;-69
2022/11/13 14:10:17;;;;;;;;;;;19.50;70.90;;;;;;5050459;28;812;-69
2022/11/13 14:12:43;;;;;;;;;;;19.50;70.90;;;;;;5061210;28;1811;-69
2022/11/13 14:15:34;;;;;;;;;;;19.50;70.90;;;;;;5064611;28;2163;-69
2022/11/13 14:18:06;;;;;;;;;;;19.50;70.90;;;;;;5061433;28;1403;-69
2022/11/13 14:20:45;;;;;;;;;;;19.50;70.90;;;;;;5063465;28;1521;-69
2022/11/13 14:23:16;;;;;;;;;;;19.50;70.90;;;;;;5047483;28;1903;-69
2022/11/13 14:25:42;;;;;;;;;;;19.50;70.90;;;;;;5043844;28;1937;-68
2022/11/13 14:28:14;;;;;;;;;;;19.50;70.90;;;;;;5046437;28;1367;-68
2022/11/13 14:30:40;;;;;;;;;;;19.50;71.60;;;;;;5027450;28;1224;-68
2022/11/13 14:33:07;;;;;;;;;;;19.50;70.40;;;;;;5058818;28;1382;-68
2022/11/13 14:35:33;;;;;;;;;;;19.50;69.80;;;;;;5062130;28;910;-68
2022/11/13 14:37:58;;;;;;;;;;;19.50;68.60;;;;;;5065096;28;1275;-68